Time;durP1;ratioP1;P1;durP2;ratioP2;P2;SDS_P1;SDS_P2;PMS_P1;PMS_P2;Temp;Humidity;BMP_temperature;BMP_pressure;BME280_temperature;BME280_humidity;BME280_pressure;Samples;Min_cycle;Max_cycle;Signal;HPM_P1;HPM_P2
2021/12/05 00:21:32;;;;;;;12.15;2.95;;;;;;;4.26;98.21;99737.91;4986030;28;20118;-69
2021/12/05 00:24:01;;;;;;;8.13;3.17;;;;;;;4.18;99.24;99742.56;4995117;28;20030;-69
2021/12/05 00:26:29;;;;;;;7.07;2.90;;;;;;;4.09;99.97;99731.53;4994072;28;20022;-69
2021/12/05 00:39:27;;;;;;;11.65;3.92;;;;;;;4.03;100.00;99721.25;5005207;28;20037;-69
2021/12/05 00:47:32;;;;;;;11.52;3.40;;;;;;;4.00;100.00;99725.75;4994260;28;20311;-69
2021/12/05 01:03:13;;;;;;;16.33;4.65;;;;;;;3.80;100.00;99716.84;5013614;28;20103;-70
2021/12/05 01:06:26;;;;;;;11.95;4.45;;;;;;;3.81;100.00;99709.81;5006600;28;20048;-69
2021/12/05 01:14:32;;;;;;;15.60;5.53;;;;;;;3.85;100.00;99707.06;4933671;29;20090;-69
2021/12/05 01:16:59;;;;;;;17.50;5.80;;;;;;;3.87;100.00;99709.59;4922573;29;20048;-69
2021/12/05 01:19:26;;;;;;;17.27;5.43;;;;;;;3.83;100.00;99698.38;4926338;29;20548;-69
2021/12/05 01:21:57;;;;;;;12.48;4.75;;;;;;;3.76;100.00;99703.00;4932536;29;20043;-70
2021/12/05 01:32:19;;;;;;;10.93;4.40;;;;;;;3.69;100.00;99692.78;4931377;29;19933;-70
2021/12/05 01:34:59;;;;;;;13.50;4.30;;;;;;;3.71;100.00;99697.06;4933371;29;20032;-70
2021/12/05 01:37:38;;;;;;;14.07;4.18;;;;;;;3.72;100.00;99704.00;4918853;29;20072;-70
2021/12/05 01:40:33;;;;;;;12.32;3.90;;;;;;;3.77;100.00;99706.44;4914452;29;20040;-70
2021/12/05 01:43:31;;;;;;;18.50;4.15;;;;;;;3.79;100.00;99706.41;4910762;29;20167;-71
2021/12/05 01:46:21;;;;;;;13.02;3.65;;;;;;;3.81;100.00;99720.28;4913840;29;20036;-69
2021/12/05 02:02:52;;;;;;;18.35;8.63;;;;;;;3.64;100.00;99706.03;4931732;29;20091;-71
2021/12/05 02:08:26;;;;;;;17.65;5.95;;;;;;;3.65;100.00;99694.66;4933300;29;20115;-70
2021/12/05 02:16:33;;;;;;;9.63;4.20;;;;;;;3.62;100.00;99697.38;4876377;29;20489;-71
2021/12/05 02:29:37;;;;;;;12.98;3.88;;;;;;;3.63;100.00;99688.59;4895064;29;20047;-72
2021/12/05 02:43:48;;;;;;;10.35;3.50;;;;;;;3.65;100.00;99704.28;4933114;29;20099;-73
2021/12/05 02:46:16;;;;;;;12.90;4.15;;;;;;;3.65;100.00;99701.66;4923114;29;20079;-74
2021/12/05 02:48:42;;;;;;;12.93;4.30;;;;;;;3.61;100.00;99693.88;4916722;29;20032;-74
2021/12/05 02:51:16;;;;;;;11.13;4.05;;;;;;;3.60;100.00;99691.34;4958077;28;20046;-70
2021/12/05 02:54:03;;;;;;;13.52;4.53;;;;;;;3.59;100.00;99689.63;4977093;28;20041;-73
2021/12/05 02:56:32;;;;;;;13.02;4.40;;;;;;;3.56;100.00;99695.81;4977735;28;20030;-74
2021/12/05 02:59:05;;;;;;;12.23;4.85;;;;;;;3.55;100.00;99688.03;4976648;28;20460;-73
2021/12/05 03:01:40;;;;;;;11.27;3.92;;;;;;;3.50;100.00;99688.16;4976437;28;20050;-73
2021/12/05 03:04:08;;;;;;;12.18;4.32;;;;;;;3.47;100.00;99690.91;4976298;28;20439;-74
2021/12/05 03:06:35;;;;;;;12.30;4.72;;;;;;;3.47;100.00;99683.06;4993222;28;20097;-74
2021/12/05 03:09:13;;;;;;;10.40;4.82;;;;;;;3.51;100.00;99686.41;4995904;28;20026;-73
2021/12/05 03:11:38;;;;;;;10.70;5.22;;;;;;;3.47;100.00;99693.53;4970676;28;20125;-74
2021/12/05 03:14:07;;;;;;;13.10;5.50;;;;;;;3.50;100.00;99689.94;4995721;28;20049;-75
2021/12/05 03:16:35;;;;;;;12.68;5.32;;;;;;;3.50;100.00;99690.78;4993713;28;20113;-72
2021/12/05 03:19:00;;;;;;;13.10;5.32;;;;;;;3.54;100.00;99697.66;4969852;28;20019;-73
2021/12/05 03:21:26;;;;;;;7.47;3.90;;;;;;;3.52;100.00;99688.13;4982449;28;20372;-72
2021/12/05 03:23:53;;;;;;;8.35;3.80;;;;;;;3.53;100.00;99688.06;4995647;28;20037;-72
2021/12/05 03:26:23;;;;;;;9.77;3.35;;;;;;;3.53;100.00;99692.44;4990864;28;20081;-74
2021/12/05 03:28:50;;;;;;;7.00;2.80;;;;;;;3.49;100.00;99683.00;4982858;28;20061;-73
2021/12/05 03:31:16;;;;;;;6.68;2.40;;;;;;;3.49;100.00;99688.22;4993500;28;20111;-73
2021/12/05 03:33:42;;;;;;;5.25;2.10;;;;;;;3.44;100.00;99686.63;4993790;28;20058;-73
2021/12/05 03:36:09;;;;;;;3.38;2.20;;;;;;;3.38;100.00;99688.59;4999533;28;20092;-73
2021/12/05 03:38:36;;;;;;;4.32;2.42;;;;;;;3.36;100.00;99683.41;4996874;28;20030;-74
2021/12/05 03:41:02;;;;;;;4.35;2.38;;;;;;;3.32;100.00;99701.88;4995323;28;20462;-73
2021/12/05 03:43:29;;;;;;;6.57;2.72;;;;;;;3.27;100.00;99700.28;4977120;28;20454;-71
2021/12/05 03:45:57;;;;;;;3.58;2.75;;;;;;;3.24;100.00;99696.91;4995107;28;20041;-73
2021/12/05 03:48:26;;;;;;;5.53;3.10;;;;;;;3.23;100.00;99701.28;5004999;28;20033;-73
2021/12/05 03:50:52;;;;;;;4.72;2.53;;;;;;;3.19;100.00;99691.81;5014576;28;20033;-73
2021/12/05 03:53:19;;;;;;;5.60;2.83;;;;;;;3.17;100.00;99703.25;5012774;28;20481;-73
2021/12/05 03:55:48;;;;;;;4.07;2.42;;;;;;;3.17;100.00;99703.25;5014711;28;20100;-73
2021/12/05 03:58:14;;;;;;;3.75;2.45;;;;;;;3.19;100.00;99719.75;5010760;28;20048;-73
2021/12/05 04:00:42;;;;;;;4.95;2.70;;;;;;;3.20;100.00;99716.25;4995830;28;20027;-72
2021/12/05 04:03:11;;;;;;;5.65;3.10;;;;;;;3.25;100.00;99727.41;4994711;28;20383;-73
2021/12/05 04:05:39;;;;;;;8.88;3.53;;;;;;;3.27;100.00;99718.59;4969434;28;20398;-72
2021/12/05 04:08:10;;;;;;;7.40;3.90;;;;;;;3.26;100.00;99723.84;4976936;28;20042;-73
2021/12/05 04:10:37;;;;;;;8.10;4.15;;;;;;;3.21;100.00;99718.78;5011775;28;20125;-72
2021/12/05 04:13:03;;;;;;;9.50;4.40;;;;;;;3.22;100.00;99715.28;4997627;28;20062;-73
2021/12/05 04:15:29;;;;;;;8.15;4.32;;;;;;;3.26;100.00;99726.47;4994752;28;20112;-73
2021/12/05 04:17:55;;;;;;;7.10;4.20;;;;;;;3.26;100.00;99718.63;4994111;28;20026;-73
2021/12/05 04:20:20;;;;;;;8.95;4.18;;;;;;;3.27;100.00;99721.22;5004312;28;20037;-72
2021/12/05 04:22:47;;;;;;;8.35;4.13;;;;;;;3.28;100.00;99727.28;5012238;28;20446;-72
2021/12/05 04:25:15;;;;;;;9.02;4.32;;;;;;;3.30;100.00;99728.09;5013919;28;20025;-74
2021/12/05 04:27:43;;;;;;;8.07;4.72;;;;;;;3.32;100.00;99728.91;5014211;28;20022;-73
2021/12/05 04:30:10;;;;;;;7.57;4.50;;;;;;;3.31;100.00;99736.81;5010571;28;20062;-73
2021/12/05 04:32:36;;;;;;;10.85;5.22;;;;;;;3.34;100.00;99737.56;4995058;28;20061;-69
2021/12/05 04:35:02;;;;;;;10.23;4.65;;;;;;;3.34;100.00;99741.91;4994310;28;20052;-74
2021/12/05 04:37:27;;;;;;;8.13;4.60;;;;;;;3.35;100.00;99736.66;4993908;28;20125;-74
2021/12/05 04:39:53;;;;;;;7.85;4.30;;;;;;;3.27;100.00;99734.31;4994342;28;20471;-74
2021/12/05 04:42:19;;;;;;;8.05;4.32;;;;;;;3.27;100.00;99734.31;4993818;28;20038;-74
2021/12/05 04:44:44;;;;;;;8.27;4.70;;;;;;;3.24;100.00;99738.78;4993697;28;20057;-74
2021/12/05 04:47:10;;;;;;;9.60;4.32;;;;;;;3.25;100.00;99749.19;4993950;28;20038;-73
2021/12/05 04:49:39;;;;;;;7.82;4.32;;;;;;;3.25;100.00;99732.63;4994299;28;20034;-74
2021/12/05 04:52:04;;;;;;;9.10;4.65;;;;;;;3.23;100.00;99750.97;4993582;28;20037;-75
2021/12/05 04:54:30;;;;;;;10.63;5.18;;;;;;;3.21;100.00;99749.31;4993641;28;20026;-75
2021/12/05 04:56:55;;;;;;;8.88;5.35;;;;;;;3.24;100.00;99746.63;4993308;28;20022;-75
2021/12/05 04:59:24;;;;;;;9.05;5.47;;;;;;;3.25;100.00;99743.94;4994092;28;20022;-73
2021/12/05 05:01:53;;;;;;;9.07;5.88;;;;;;;3.24;100.00;99754.47;4993462;28;20474;-73
2021/12/05 05:04:25;;;;;;;9.85;5.53;;;;;;;3.25;100.00;99753.56;4993217;28;20029;-73
2021/12/05 05:06:52;;;;;;;10.73;5.10;;;;;;;3.23;100.00;99743.13;4993427;28;20030;-74
2021/12/05 05:09:18;;;;;;;11.35;5.47;;;;;;;3.23;100.00;99757.97;4976357;28;20387;-75
2021/12/05 05:11:43;;;;;;;11.38;5.03;;;;;;;3.26;100.00;99757.88;4994048;28;20112;-75
2021/12/05 05:14:10;;;;;;;9.35;4.97;;;;;;;3.26;100.00;99763.09;4993483;28;20113;-73
2021/12/05 05:16:35;;;;;;;9.20;4.90;;;;;;;3.27;100.00;99767.44;4993590;28;20022;-73
2021/12/05 05:19:01;;;;;;;8.25;5.32;;;;;;;3.26;100.00;99763.97;4992949;28;20031;-75
2021/12/05 05:48:00;;;;;;;11.40;7.03;;;;;;;3.20;100.00;99789.50;4951956;29;20431;-74
2021/12/05 05:50:27;;;;;;;10.98;6.78;;;;;;;3.18;100.00;99793.91;4951797;29;20054;-74
2021/12/05 05:52:53;;;;;;;11.30;6.68;;;;;;;3.18;100.00;99791.28;4952166;29;20047;-73
2021/12/05 05:55:19;;;;;;;14.10;6.78;;;;;;;3.19;100.00;99795.63;4950950;28;20467;-72
2021/12/05 06:00:33;;;;;;;13.00;7.20;;;;;;;3.24;100.00;99801.56;4951756;29;20043;-72
2021/12/05 06:03:21;;;;;;;14.10;6.65;;;;;;;3.23;100.00;99800.69;4952060;29;20114;-73
2021/12/05 06:05:53;;;;;;;12.65;6.72;;;;;;;3.17;100.00;99810.50;4965332;28;20897;-70
2021/12/05 06:08:23;;;;;;;11.98;6.72;;;;;;;3.11;100.00;99809.78;4977002;28;20049;-74
2021/12/05 06:10:49;;;;;;;12.50;7.28;;;;;;;3.09;100.00;99808.97;4978679;28;20039;-76
2021/12/05 06:13:16;;;;;;;10.93;6.60;;;;;;;3.10;100.00;99815.91;4977459;28;20043;-76
2021/12/05 06:15:42;;;;;;;11.35;6.53;;;;;;;3.14;100.00;99823.69;4977352;28;20023;-72
2021/12/05 06:18:07;;;;;;;15.13;7.30;;;;;;;3.13;100.00;99819.34;4991422;28;20081;-74
2021/12/05 06:20:33;;;;;;;13.75;6.65;;;;;;;3.14;100.00;99831.53;4996289;28;20054;-73
2021/12/05 06:22:59;;;;;;;14.32;7.25;;;;;;;3.18;100.00;99825.28;4996620;28;20044;-74
2021/12/05 06:25:27;;;;;;;13.05;6.60;;;;;;;3.15;100.00;99833.25;4996943;28;20105;-75
2021/12/05 06:27:55;;;;;;;12.35;5.93;;;;;;;3.10;100.00;99836.00;4986577;28;20027;-76
2021/12/05 06:46:35;;;;;;;11.70;5.30;;;;;;;3.11;100.00;99848.19;4996330;28;20034;-74
2021/12/05 06:49:00;;;;;;;7.38;4.53;;;;;;;3.11;100.00;99859.47;5005674;28;20061;-77
2021/12/05 06:51:28;;;;;;;9.63;5.00;;;;;;;3.11;100.00;99859.47;5015587;28;20054;-74
2021/12/05 06:53:58;;;;;;;8.15;4.80;;;;;;;3.08;100.00;99856.97;4999945;28;20031;-75
2021/12/05 06:56:24;;;;;;;8.68;5.13;;;;;;;3.05;100.00;99864.88;4996414;28;20030;-73
2021/12/05 06:58:50;;;;;;;10.23;5.18;;;;;;;3.00;100.00;99864.16;4995988;28;20058;-76
2021/12/05 07:01:16;;;;;;;10.82;5.45;;;;;;;2.97;100.00;99866.88;4996293;28;20026;-69
2021/12/05 07:03:45;;;;;;;9.20;5.70;;;;;;;2.95;100.00;99871.28;4996951;28;20034;-75
2021/12/05 07:06:20;;;;;;;13.25;6.40;;;;;;;2.94;100.00;99880.91;4995754;28;20509;-73
2021/12/05 07:08:46;;;;;;;12.27;6.13;;;;;;;2.93;100.00;99878.34;5012548;28;20474;-76
2021/12/05 07:11:33;;;;;;;14.50;7.45;;;;;;;2.93;100.00;99897.50;5015334;28;20045;-73
2021/12/05 07:21:50;;;;;;;10.73;6.22;;;;;;;2.86;100.00;99905.56;4996569;28;20112;-76
2021/12/05 07:40:28;;;;;;;12.23;5.70;;;;;;;2.91;100.00;99932.44;5006479;28;20049;-76
2021/12/05 07:43:00;;;;;;;11.95;6.22;;;;;;;2.93;100.00;99938.50;4995164;28;20565;-71
2021/12/05 07:45:33;;;;;;;14.77;6.20;;;;;;;2.95;100.00;99944.53;5004142;28;20104;-74
2021/12/05 07:48:06;;;;;;;13.10;5.82;;;;;;;2.97;100.00;99942.72;5009677;28;20057;-76
2021/12/05 07:50:48;;;;;;;13.10;6.03;;;;;;;3.03;100.00;99942.56;5014346;28;20105;-73
2021/12/05 07:53:22;;;;;;;11.13;5.95;;;;;;;3.05;100.00;99947.75;5013365;28;20390;-74
2021/12/05 07:55:51;;;;;;;12.10;5.70;;;;;;;3.05;100.00;99951.22;5013796;28;20482;-77
2021/12/05 07:58:33;;;;;;;12.00;6.07;;;;;;;3.10;100.00;99948.47;5014515;28;20017;-77
2021/12/05 08:14:47;;;;;;;10.35;5.63;;;;;;;3.07;100.00;99977.31;4973631;28;20427;-76
2021/12/05 08:17:19;;;;;;;11.77;5.90;;;;;;;3.06;100.00;99973.84;4959428;28;20120;-75
2021/12/05 08:19:45;;;;;;;11.80;5.57;;;;;;;3.09;100.00;99983.38;4971903;28;20039;-74
2021/12/05 08:22:11;;;;;;;10.10;5.70;;;;;;;3.08;100.00;99979.03;4972348;28;20651;-75
2021/12/05 08:24:40;;;;;;;10.73;6.03;;;;;;;3.03;100.00;99988.78;4956470;28;20074;-77
2021/12/05 08:27:07;;;;;;;16.20;6.60;;;;;;;3.04;100.00;99990.50;4972350;28;20038;-73
2021/12/05 08:32:33;;;;;;;13.38;6.20;;;;;;;3.20;100.00;99989.16;4935059;29;20416;-75
2021/12/05 08:35:16;;;;;;;15.05;6.85;;;;;;;3.35;100.00;99993.13;4936154;29;20031;-75
2021/12/05 09:40:14;;;;;;;10.60;5.25;;;;;;;4.40;100.00;100078.19;5012268;28;20064;-74
2021/12/05 09:51:22;;;;;;;8.63;4.68;;;;;;;5.27;96.43;100104.19;5016288;28;20091;-76
2021/12/05 10:07:47;;;;;;;8.57;4.80;;;;;;;4.31;97.78;100121.25;5023988;28;20036;-72
2021/12/05 10:37:24;;;;;;;6.15;3.78;;;;;;;12.31;62.77;100144.13;5011370;28;20049;-75
2021/12/05 10:40:14;;;;;;;5.82;3.00;;;;;;;10.75;66.28;100136.53;5015761;28;20041;-75
2021/12/05 10:42:46;;;;;;;5.63;3.28;;;;;;;9.75;70.35;100141.97;5024454;28;20104;-74
2021/12/05 10:45:28;;;;;;;5.60;3.80;;;;;;;9.06;74.62;100138.44;5006179;28;20018;-73
2021/12/05 10:47:56;;;;;;;5.80;2.97;;;;;;;8.52;77.25;100150.66;5006930;28;20022;-70
2021/12/05 10:50:28;;;;;;;5.57;3.10;;;;;;;8.09;78.71;100149.13;5011768;28;20553;-70
2021/12/05 10:53:16;;;;;;;4.10;2.63;;;;;;;7.51;79.98;100145.53;5012489;28;20475;-71
2021/12/05 10:55:41;;;;;;;4.32;2.78;;;;;;;7.20;81.63;100157.38;5018526;28;20022;-75
2021/12/05 10:58:07;;;;;;;5.28;2.83;;;;;;;7.12;83.21;100156.81;5018419;28;20076;-74
2021/12/05 11:00:32;;;;;;;5.65;3.10;;;;;;;7.22;83.50;100163.41;5015831;28;20084;-73
2021/12/05 11:03:19;;;;;;;5.30;2.65;;;;;;;7.55;81.88;100155.00;5015891;28;20037;-75
2021/12/05 11:05:45;;;;;;;6.80;2.67;;;;;;;7.72;81.39;100156.91;5014968;28;20054;-71
2021/12/05 11:08:36;;;;;;;4.75;2.45;;;;;;;8.36;79.05;100150.50;5015544;28;20064;-75
2021/12/05 11:11:10;;;;;;;6.07;2.60;;;;;;;9.18;76.53;100151.88;5023774;28;20036;-72
2021/12/05 11:13:38;;;;;;;5.43;2.60;;;;;;;9.74;72.29;100151.69;5017493;28;20466;-75
2021/12/05 11:16:30;;;;;;;4.15;2.42;;;;;;;9.55;72.55;100159.69;5035672;28;20076;-75
2021/12/05 11:18:56;;;;;;;5.97;2.65;;;;;;;9.41;73.81;100156.91;5024382;28;20033;-74
2021/12/05 11:21:32;;;;;;;4.40;2.00;;;;;;;9.44;73.42;100172.63;5025717;28;20048;-73
2021/12/05 11:24:24;;;;;;;5.85;2.40;;;;;;;9.29;74.08;100171.63;5015350;28;20474;-74
2021/12/05 11:27:08;;;;;;;5.07;2.15;;;;;;;9.01;74.24;100173.84;5015721;28;20026;-74
2021/12/05 11:29:42;;;;;;;5.57;2.20;;;;;;;8.63;75.01;100173.91;5015024;28;20022;-76
2021/12/05 11:32:10;;;;;;;5.70;2.50;;;;;;;8.31;75.95;100170.97;5013552;28;20030;-76
2021/12/05 11:34:36;;;;;;;4.57;2.20;;;;;;;7.94;77.79;100177.91;4993941;28;20426;-74
2021/12/05 11:37:01;;;;;;;4.28;2.40;;;;;;;7.81;77.59;100174.97;5002432;28;20046;-76
2021/12/05 11:39:27;;;;;;;3.90;2.08;;;;;;;7.79;79.57;100187.34;5011397;28;20211;-76
2021/12/05 11:41:52;;;;;;;4.32;2.20;;;;;;;7.65;78.88;100190.56;5000639;28;20077;-71
2021/12/05 11:44:20;;;;;;;5.00;2.30;;;;;;;7.57;79.16;100195.34;5013485;28;20037;-75
2021/12/05 11:46:46;;;;;;;4.55;2.35;;;;;;;7.60;80.25;100196.97;5004135;28;20439;-73
2021/12/05 11:49:20;;;;;;;6.38;2.33;;;;;;;7.59;79.96;100203.16;5011007;28;20030;-75
2021/12/05 11:51:52;;;;;;;3.83;2.28;;;;;;;7.68;80.45;100200.13;5014255;28;20514;-73
2021/12/05 11:54:29;;;;;;;;;;;;;;;7.66;80.90;100196.69;5015037;28;20045;-74
2021/12/05 11:56:59;;;;;;;3.15;2.28;;;;;;;7.51;80.81;100204.34;5011478;28;19918;-75
2021/12/05 11:59:46;;;;;;;4.63;2.10;;;;;;;7.55;80.39;100210.34;5006653;28;20026;-75
2021/12/05 12:02:13;;;;;;;3.75;2.22;;;;;;;7.51;79.40;100211.41;5014302;28;20073;-76
2021/12/05 12:04:51;;;;;;;3.75;2.28;;;;;;;7.42;80.38;100211.75;5011985;28;20053;-75
2021/12/05 12:07:28;;;;;;;3.00;2.10;;;;;;;7.36;80.92;100218.16;5014782;28;20026;-76
2021/12/05 12:09:58;;;;;;;5.10;2.50;;;;;;;7.25;81.93;100215.97;5002367;28;20064;-71
2021/12/05 12:12:24;;;;;;;4.78;2.33;;;;;;;7.18;81.93;100235.56;5014015;28;20029;-70
2021/12/05 12:14:50;;;;;;;5.97;2.42;;;;;;;7.11;81.26;100226.19;5014223;28;20383;-75
2021/12/05 12:17:16;;;;;;;4.97;2.90;;;;;;;7.12;81.95;100230.53;5013992;28;20042;-74
2021/12/05 12:19:45;;;;;;;6.55;3.58;;;;;;;7.07;83.71;100228.09;5004725;28;20026;-72
2021/12/05 12:22:10;;;;;;;9.18;4.90;;;;;;;6.99;83.58;100236.28;5012992;28;20516;-75
2021/12/05 12:24:37;;;;;;;9.05;4.82;;;;;;;6.89;83.86;100243.72;5014220;28;20057;-76
2021/12/05 12:27:03;;;;;;;7.82;4.22;;;;;;;6.80;85.65;100241.41;5013744;28;20037;-74
2021/12/05 12:29:29;;;;;;;7.47;3.97;;;;;;;6.76;86.15;100247.72;5011889;28;20038;-73
2021/12/05 12:32:01;;;;;;;6.38;3.67;;;;;;;6.66;86.76;100252.50;5013799;28;20485;-73
2021/12/05 12:34:27;;;;;;;5.70;2.92;;;;;;;6.61;86.07;100251.81;5013742;28;20126;-75
2021/12/05 12:36:58;;;;;;;5.63;3.22;;;;;;;6.62;86.67;100253.50;5013528;28;20445;-71
2021/12/05 12:39:25;;;;;;;6.17;3.50;;;;;;;6.67;86.46;100256.81;5013717;28;20117;-72
2021/12/05 12:42:21;;;;;;;5.35;3.28;;;;;;;6.62;85.47;100258.78;5001972;28;20030;-75
2021/12/05 12:44:58;;;;;;;5.95;3.67;;;;;;;6.53;85.87;100262.63;5013174;28;20070;-73
2021/12/05 12:47:37;;;;;;;5.38;3.80;;;;;;;6.48;86.14;100269.81;5013989;28;20030;-71
2021/12/05 12:50:23;;;;;;;6.15;4.22;;;;;;;6.32;86.83;100266.06;5013094;28;20031;-73
2021/12/05 12:52:57;;;;;;;8.25;4.20;;;;;;;6.26;87.60;100263.63;5005699;28;20068;-76
2021/12/05 12:55:27;;;;;;;6.03;3.95;;;;;;;6.29;88.42;100274.03;5013097;28;20017;-73
2021/12/05 12:57:53;;;;;;;5.97;3.90;;;;;;;6.39;87.95;100275.41;5012834;28;20037;-69
2021/12/05 13:00:20;;;;;;;7.22;4.15;;;;;;;6.50;87.48;100270.63;5013112;28;20022;-77
2021/12/05 13:11:01;;;;;;;6.60;4.40;;;;;;;6.24;87.87;100292.63;5023179;28;20060;-75
2021/12/05 13:13:29;;;;;;;6.35;4.55;;;;;;;6.13;87.40;100292.97;5011018;28;20470;-76
2021/12/05 13:16:09;;;;;;;7.57;5.18;;;;;;;6.07;88.51;100298.44;5012386;28;20029;-72
2021/12/05 13:18:38;;;;;;;9.93;6.15;;;;;;;6.04;89.37;100296.78;5012590;28;20040;-72
2021/12/05 13:21:26;;;;;;;8.35;6.22;;;;;;;6.01;89.95;100302.16;5012845;28;20065;-75
2021/12/05 13:23:52;;;;;;;8.43;5.78;;;;;;;6.05;89.66;100318.69;5011901;28;20068;-74
2021/12/05 13:26:34;;;;;;;11.93;6.30;;;;;;;5.95;89.23;100317.25;5012591;28;20119;-73
2021/12/05 13:29:15;;;;;;;10.20;6.70;;;;;;;5.86;90.07;100318.44;5012008;28;20509;-74
2021/12/05 13:31:43;;;;;;;11.25;6.85;;;;;;;5.81;90.75;100322.97;5013232;28;20473;-75
2021/12/05 13:34:18;;;;;;;16.13;7.43;;;;;;;5.79;90.98;100320.38;5006727;28;20030;-74
2021/12/05 13:37:05;;;;;;;17.02;7.38;;;;;;;5.82;90.48;100325.56;5006837;28;20088;-74
2021/12/05 13:39:43;;;;;;;16.33;7.60;;;;;;;5.78;90.93;100326.56;5010092;28;20045;-73
2021/12/05 13:42:35;;;;;;;14.43;7.90;;;;;;;5.80;90.48;100326.50;5008524;28;20041;-75
2021/12/05 13:45:04;;;;;;;14.90;8.03;;;;;;;5.85;90.67;100332.47;4935769;29;20074;-75
2021/12/05 13:47:44;;;;;;;17.15;8.20;;;;;;;5.90;90.45;100331.41;4947107;29;20298;-75
2021/12/05 13:50:19;;;;;;;15.18;7.75;;;;;;;5.88;89.13;100333.22;4940040;29;20512;-76
2021/12/05 13:52:52;;;;;;;20.00;8.80;;;;;;;5.91;89.94;100346.25;4940234;28;20134;-75
2021/12/05 13:55:40;;;;;;;22.25;10.45;;;;;;;5.91;89.24;100334.91;4949419;29;20035;-73
2021/12/05 13:58:24;;;;;;;18.55;9.95;;;;;;;5.89;89.29;100355.94;4952010;29;20027;-74
2021/12/05 14:01:33;;;;;;;20.88;9.52;;;;;;;5.94;90.17;100349.69;4951539;29;20042;-74
2021/12/05 14:04:10;;;;;;;21.17;9.13;;;;;;;5.91;89.47;100362.03;4895163;29;20077;-74
2021/12/05 14:06:38;;;;;;;24.13;11.43;;;;;;;5.94;90.00;100374.19;4883298;29;20173;-74
2021/12/05 14:09:13;;;;;;;25.25;12.63;;;;;;;5.91;90.19;100367.28;4876037;29;20524;-75
2021/12/05 14:12:18;;;;;;;24.58;11.38;;;;;;;5.87;91.00;100380.56;4901033;29;20047;-72
2021/12/05 14:14:52;;;;;;;28.00;12.43;;;;;;;5.85;91.05;100385.03;4881053;29;20076;-73
2021/12/05 14:17:20;;;;;;;25.20;11.40;;;;;;;5.77;90.48;100398.41;4893558;29;20080;-72
2021/12/05 14:19:50;;;;;;;24.55;12.32;;;;;;;5.75;90.21;100389.72;4886242;29;20029;-73
2021/12/05 14:22:18;;;;;;;24.52;12.05;;;;;;;5.72;90.50;100402.94;4920583;29;20126;-74
2021/12/05 14:24:47;;;;;;;25.67;12.13;;;;;;;5.66;91.37;100411.88;4944116;29;20095;-72
2021/12/05 14:27:16;;;;;;;26.30;11.50;;;;;;;5.66;90.80;100416.28;4950087;28;20035;-70
2021/12/05 14:29:43;;;;;;;25.25;12.00;;;;;;;5.58;91.72;100425.25;4954770;29;20065;-74
2021/12/05 14:32:21;;;;;;;24.98;12.73;;;;;;;5.55;92.32;100435.84;4955285;29;20059;-74
2021/12/05 14:34:46;;;;;;;25.00;12.18;;;;;;;5.54;92.11;100438.53;4945259;29;20039;-74
2021/12/05 14:37:19;;;;;;;23.13;12.45;;;;;;;5.55;92.39;100438.47;4966724;28;20042;-73
2021/12/05 14:39:51;;;;;;;23.48;12.02;;;;;;;5.52;93.87;100445.59;5014502;28;20034;-71
2021/12/05 14:42:20;;;;;;;29.77;12.02;;;;;;;5.49;93.70;100443.06;5016268;28;20029;-73
2021/12/05 14:44:52;;;;;;;24.77;11.82;;;;;;;5.47;94.34;100448.34;5004551;28;20037;-73
2021/12/05 14:47:20;;;;;;;26.80;12.05;;;;;;;5.45;94.45;100470.31;5014613;28;20021;-71
2021/12/05 14:49:51;;;;;;;22.70;12.18;;;;;;;5.41;94.37;100462.53;5014359;28;20057;-72
2021/12/05 14:52:23;;;;;;;22.23;11.50;;;;;;;5.36;94.23;100466.22;5003719;28;20022;-73
2021/12/05 14:54:48;;;;;;;;;;;;;;;5.38;95.13;100477.50;5009273;28;20621;-70
2021/12/05 14:57:17;;;;;;;27.95;13.85;;;;;;;5.33;95.16;100489.91;5000429;28;19953;-73
2021/12/05 14:59:45;;;;;;;36.13;16.17;;;;;;;5.28;94.86;100494.44;5011642;28;20088;-72
2021/12/05 15:02:11;;;;;;;33.97;17.25;;;;;;;5.27;95.49;100501.47;5008977;28;20029;-73
2021/12/05 15:04:40;;;;;;;33.25;16.60;;;;;;;5.22;95.66;100508.59;5015591;28;20022;-72
2021/12/05 15:07:06;;;;;;;36.28;17.55;;;;;;;5.18;96.79;100514.81;4997157;28;20125;-72
2021/12/05 15:09:44;;;;;;;36.55;17.10;;;;;;;5.14;96.25;100519.31;4996668;28;20030;-69
2021/12/05 15:12:18;;;;;;;40.90;16.75;;;;;;;5.11;97.26;100526.41;5010523;28;20076;-72
2021/12/05 15:14:46;;;;;;;35.97;16.42;;;;;;;5.07;97.68;100533.50;4996347;28;20096;-70
2021/12/05 15:17:18;;;;;;;36.17;16.90;;;;;;;5.01;97.85;100531.03;5013471;28;20041;-70
2021/12/05 15:19:47;;;;;;;34.97;16.10;;;;;;;4.97;98.43;100542.53;5004213;28;20034;-72
2021/12/05 15:22:13;;;;;;;36.55;15.88;;;;;;;4.90;98.20;100547.09;5009687;28;20033;-71
2021/12/05 15:24:47;;;;;;;38.10;16.13;;;;;;;4.84;99.47;100553.34;4998403;28;20026;-72
2021/12/05 15:27:15;;;;;;;40.70;15.38;;;;;;;4.82;99.25;100560.41;5014348;28;20030;-72
2021/12/05 15:29:49;;;;;;;31.27;14.55;;;;;;;4.81;98.93;100560.41;5013170;28;20069;-72
2021/12/05 15:32:20;;;;;;;30.05;13.98;;;;;;;4.79;100.00;100567.47;5014282;28;20028;-70
2021/12/05 15:34:49;;;;;;;32.67;14.07;;;;;;;4.75;99.40;100567.53;5013002;28;20061;-70
2021/12/05 15:37:15;;;;;;;34.50;14.55;;;;;;;4.74;99.86;100581.59;5009751;28;20074;-72
2021/12/05 15:39:43;;;;;;;31.92;14.35;;;;;;;4.68;100.00;100588.72;5010339;28;20025;-71
2021/12/05 15:42:23;;;;;;;30.73;14.48;;;;;;;4.66;100.00;100591.38;5027138;28;20017;-72
2021/12/05 15:44:51;;;;;;;30.15;13.75;;;;;;;4.64;100.00;100587.06;5019111;28;20087;-70
2021/12/05 15:47:20;;;;;;;32.78;14.82;;;;;;;4.63;100.00;100591.47;4997404;28;20085;-72
2021/12/05 15:49:47;;;;;;;32.70;15.75;;;;;;;4.61;100.00;100593.25;4996236;28;20040;-72
2021/12/05 15:52:14;;;;;;;34.50;15.20;;;;;;;4.59;100.00;100595.03;4997934;28;20554;-72
2021/12/05 15:54:42;;;;;;;31.05;14.68;;;;;;;4.53;100.00;100606.56;5012711;28;20036;-72
2021/12/05 15:57:27;;;;;;;34.67;15.73;;;;;;;4.49;100.00;100611.88;5007071;28;20030;-72
2021/12/05 15:59:53;;;;;;;38.08;16.58;;;;;;;4.45;100.00;100613.75;5012301;28;20108;-69
2021/12/05 16:02:19;;;;;;;28.45;15.50;;;;;;;4.47;100.00;100618.94;5003127;28;20569;-73
2021/12/05 16:04:46;;;;;;;29.80;15.82;;;;;;;4.46;100.00;100630.34;5006811;28;20036;-72
2021/12/05 16:07:12;;;;;;;35.33;16.17;;;;;;;4.44;100.00;100619.88;5012066;28;20034;-72
2021/12/05 16:09:40;;;;;;;37.53;17.33;;;;;;;4.47;100.00;100638.16;4999849;28;20018;-72
2021/12/05 16:12:18;;;;;;;34.20;17.40;;;;;;;4.47;100.00;100637.31;5002426;28;20049;-72
2021/12/05 16:14:52;;;;;;;34.80;17.20;;;;;;;4.49;100.00;100643.34;5013907;28;20065;-72
2021/12/05 16:17:28;;;;;;;34.55;16.50;;;;;;;4.49;100.00;100644.25;5013012;28;20026;-72
2021/12/05 16:20:17;;;;;;;35.35;15.95;;;;;;;4.54;100.00;100646.72;5012807;28;20040;-72
2021/12/05 16:22:56;;;;;;;34.83;16.45;;;;;;;4.53;100.00;100661.63;5010063;28;20065;-72
2021/12/05 16:25:22;;;;;;;30.33;15.40;;;;;;;4.53;100.00;100663.41;5008561;28;20394;-71
2021/12/05 16:27:49;;;;;;;28.08;14.88;;;;;;;4.55;100.00;100662.47;5012812;28;20026;-72
2021/12/05 16:30:27;;;;;;;26.95;14.07;;;;;;;4.55;100.00;100665.09;5013410;28;20037;-72
2021/12/05 16:32:53;;;;;;;31.92;13.40;;;;;;;4.54;100.00;100673.84;5008808;28;20097;-71
2021/12/05 16:35:41;;;;;;;25.58;13.38;;;;;;;4.54;100.00;100668.59;5004756;28;20033;-72
2021/12/05 16:38:26;;;;;;;27.65;13.25;;;;;;;4.54;100.00;100675.59;5003832;28;20394;-72
2021/12/05 16:41:03;;;;;;;22.08;11.88;;;;;;;4.57;100.00;100688.66;5017231;28;20470;-71
2021/12/05 16:43:30;;;;;;;22.70;12.48;;;;;;;4.52;100.00;100693.97;4998945;28;20429;-72
2021/12/05 16:46:08;;;;;;;23.50;12.60;;;;;;;4.50;100.00;100706.28;5013470;28;20087;-72
2021/12/05 16:48:36;;;;;;;23.95;13.00;;;;;;;4.49;100.00;100707.16;5011152;28;20026;-72
2021/12/05 16:51:21;;;;;;;20.80;11.88;;;;;;;4.50;100.00;100713.28;5012222;28;20104;-70
2021/12/05 16:53:50;;;;;;;24.67;13.02;;;;;;;4.54;100.00;100717.53;5010061;28;20045;-72
2021/12/05 16:56:38;;;;;;;27.23;13.07;;;;;;;4.50;100.00;100724.63;5000889;28;20462;-72
2021/12/05 16:59:16;;;;;;;21.45;12.07;;;;;;;4.46;100.00;100729.97;5005113;28;20037;-71
2021/12/05 17:01:42;;;;;;;21.60;11.93;;;;;;;4.44;100.00;100737.88;5012407;28;20030;-72